Time,TemperatureF,DewpointF,PressureIn,WindDirection,WindDirectionDegrees,WindSpeedMPH,WindSpeedGustMPH,Humidity,HourlyPrecipIn,Conditions,Clouds,dailyrainin,SoftwareType,DateUTC
2013-02-20 00:13:00,24.1,20.0,30.01,WNW,300,0.0,1.0,84,0.00,,,0.00,weatherlink.com 1.10,2013-02-20 08:13:00,
2013-02-20 00:28:00,23.9,20.0,30.01,WNW,300,0.0,1.0,84,0.00,,,0.00,weatherlink.com 1.10,2013-02-20 08:28:00,
2013-02-20 00:43:00,24.0,20.0,30.02,WNW,300,0.0,1.0,83,0.00,,,0.00,weatherlink.com 1.10,2013-02-20 08:43:00,
2013-02-20 00:58:00,24.2,20.0,30.02,WNW,300,0.0,1.0,85,0.00,,,0.00,weatherlink.com 1.10,2013-02-20 08:58:00,
2013-02-20 01:13:00,23.9,20.0,30.03,WNW,300,0.0,0.0,85,0.00,,,0.00,weatherlink.com 1.10,2013-02-20 09:13:00,
2013-02-20 01:28:00,22.9,19.0,30.03,WNW,300,0.0,0.0,86,0.00,,,0.00,weatherlink.com 1.10,2013-02-20 09:28:00,
2013-02-20 01:43:00,22.1,19.0,30.04,WNW,300,0.0,0.0,86,0.00,,,0.00,weatherlink.com 1.10,2013-02-20 09:43:00,
2013-02-20 01:58:00,22.0,19.0,30.04,WNW,300,0.0,1.0,86,0.00,,,0.00,weatherlink.com 1.10,2013-02-20 09:58:00,
2013-02-20 02:13:00,22.4,19.0,30.05,WNW,300,0.0,1.0,86,0.00,,,0.00,weatherlink.com 1.10,2013-02-20 10:13:00,
2013-02-20 02:28:00,23.3,20.0,30.05,WNW,300,0.0,1.0,86,0.00,,,0.00,weatherlink.com 1.10,2013-02-20 10:28:00,
2013-02-20 02:43:00,24.4,21.0,30.05,WNW,300,0.0,2.0,85,0.00,,,0.00,weatherlink.com 1.10,2013-02-20 10:43:00,
2013-02-20 02:58:00,25.3,21.0,30.05,WNW,300,0.0,3.0,84,0.00,,,0.00,weatherlink.com 1.10,2013-02-20 10:58:00,
2013-02-20 03:13:00,25.8,21.0,30.05,WNW,300,1.0,2.0,82,0.00,,,0.00,weatherlink.com 1.10,2013-02-20 11:13:00,
2013-02-20 03:28:00,26.1,21.0,30.05,WNW,300,0.0,1.0,82,0.00,,,0.00,weatherlink.com 1.10,2013-02-20 11:28:00,
2013-02-20 03:43:00,26.3,21.0,30.05,WNW,300,0.0,1.0,81,0.00,,,0.00,weatherlink.com 1.10,2013-02-20 11:43:00,
2013-02-20 03:58:00,26.5,21.0,30.06,WNW,300,1.0,3.0,79,0.00,,,0.00,weatherlink.com 1.10,2013-02-20 11:58:00,
2013-02-20 04:13:00,26.1,20.0,30.06,WNW,300,1.0,3.0,78,0.00,,,0.00,weatherlink.com 1.10,2013-02-20 12:13:00,
2013-02-20 04:28:00,26.2,20.0,30.07,WNW,300,3.0,3.0,77,0.00,,,0.00,weatherlink.com 1.10,2013-02-20 12:28:00,
2013-02-20 04:43:00,26.2,20.0,30.07,WNW,300,1.0,3.0,77,0.00,,,0.00,weatherlink.com 1.10,2013-02-20 12:43:00,
2013-02-20 04:58:00,26.3,20.0,30.07,WNW,300,2.0,3.0,76,0.00,,,0.00,weatherlink.com 1.10,2013-02-20 12:58:00,
2013-02-20 05:13:00,26.4,20.0,30.07,WNW,300,1.0,3.0,76,0.00,,,0.00,weatherlink.com 1.10,2013-02-20 13:13:00,
2013-02-20 05:28:00,26.1,20.0,30.07,WNW,300,1.0,2.0,76,0.00,,,0.00,weatherlink.com 1.10,2013-02-20 13:28:00,
2013-02-20 05:43:00,26.0,19.0,30.08,WNW,300,2.0,4.0,75,0.00,,,0.00,weatherlink.com 1.10,2013-02-20 13:43:00,
2013-02-20 05:58:00,25.4,19.0,30.08,WNW,300,0.0,2.0,76,0.00,,,0.00,weatherlink.com 1.10,2013-02-20 13:58:00,
2013-02-20 06:13:00,24.9,18.0,30.09,WNW,300,1.0,3.0,76,0.00,,,0.00,weatherlink.com 1.10,2013-02-20 14:13:00,
2013-02-20 06:28:00,24.2,18.0,30.09,WNW,300,0.0,3.0,76,0.00,,,0.00,weatherlink.com 1.10,2013-02-20 14:28:00,
2013-02-20 06:43:00,23.6,17.0,30.10,WNW,300,1.0,3.0,77,0.00,,,0.00,weatherlink.com 1.10,2013-02-20 14:43:00,
2013-02-20 06:58:00,23.5,17.0,30.10,West,268,2.0,5.0,77,0.00,,,0.00,weatherlink.com 1.10,2013-02-20 14:58:00,
2013-02-20 07:13:00,23.3,17.0,30.11,West,265,2.0,3.0,77,0.00,,,0.00,weatherlink.com 1.10,2013-02-20 15:13:00,
2013-02-20 07:28:00,23.4,17.0,30.10,West,263,2.0,4.0,76,0.00,,,0.00,weatherlink.com 1.10,2013-02-20 15:28:00,
2013-02-20 07:43:00,24.2,17.0,30.10,WSW,251,3.0,5.0,75,0.00,,,0.00,weatherlink.com 1.10,2013-02-20 15:43:00,
2013-02-20 07:58:00,25.1,18.0,30.11,SSW,198,5.0,6.0,74,0.00,,,0.00,weatherlink.com 1.10,2013-02-20 15:58:00,
2013-02-20 08:14:00,26.4,19.0,30.10,SSW,196,1.0,5.0,73,0.00,,,0.00,weatherlink.com 1.10,2013-02-20 16:14:00,
2013-02-20 08:29:00,27.9,19.0,30.11,South,174,3.0,8.0,70,0.00,,,0.00,weatherlink.com 1.10,2013-02-20 16:29:00,
2013-02-20 08:44:00,29.7,20.0,30.10,South,178,2.0,6.0,68,0.00,,,0.00,weatherlink.com 1.10,2013-02-20 16:44:00,
2013-02-20 08:59:00,30.2,20.0,30.10,South,178,4.0,8.0,67,0.00,,,0.00,weatherlink.com 1.10,2013-02-20 16:59:00,
2013-02-20 09:14:00,31.4,22.0,30.10,SSE,151,4.0,9.0,67,0.00,,,0.00,weatherlink.com 1.10,2013-02-20 17:14:00,
2013-02-20 09:29:00,33.4,22.0,30.11,SSW,194,3.0,9.0,64,0.00,,,0.00,weatherlink.com 1.10,2013-02-20 17:29:00,
2013-02-20 09:44:00,34.1,22.0,30.10,SSE,153,3.0,10.0,61,0.00,,,0.00,weatherlink.com 1.10,2013-02-20 17:44:00,
2013-02-20 09:59:00,34.1,21.0,30.10,SSE,161,6.0,7.0,60,0.00,,,0.00,weatherlink.com 1.10,2013-02-20 17:59:00,
2013-02-20 10:14:00,34.9,20.0,30.09,SSW,196,3.0,7.0,56,0.00,,,0.00,weatherlink.com 1.10,2013-02-20 18:14:00,
2013-02-20 10:29:00,35.4,19.0,30.10,SSW,198,2.0,5.0,52,0.00,,,0.00,weatherlink.com 1.10,2013-02-20 18:29:00,
2013-02-20 10:44:00,36.3,20.0,30.10,SSW,200,1.0,6.0,52,0.00,,,0.00,weatherlink.com 1.10,2013-02-20 18:44:00,
2013-02-20 10:59:00,36.2,21.0,30.10,SSW,192,1.0,3.0,54,0.00,,,0.00,weatherlink.com 1.10,2013-02-20 18:59:00,
2013-02-20 11:14:00,36.8,20.0,30.10,South,190,1.0,6.0,52,0.00,,,0.00,weatherlink.com 1.10,2013-02-20 19:14:00,
2013-02-20 11:29:00,37.6,20.0,30.09,SE,146,3.0,5.0,50,0.00,,,0.00,weatherlink.com 1.10,2013-02-20 19:29:00,
2013-02-20 11:44:00,37.6,19.0,30.08,SE,138,2.0,8.0,47,0.00,,,0.00,weatherlink.com 1.10,2013-02-20 19:44:00,
2013-02-20 11:59:00,39.0,20.0,30.08,SW,230,6.0,8.0,46,0.00,,,0.00,weatherlink.com 1.10,2013-02-20 19:59:00,
2013-02-20 12:14:00,40.2,20.0,30.07,West,277,1.0,7.0,44,0.00,,,0.00,weatherlink.com 1.10,2013-02-20 20:14:00,
2013-02-20 12:29:00,39.2,19.0,30.07,East,99,2.0,7.0,45,0.00,,,0.00,weatherlink.com 1.10,2013-02-20 20:29:00,
2013-02-20 12:44:00,40.6,20.0,30.06,South,180,3.0,5.0,43,0.00,,,0.00,weatherlink.com 1.10,2013-02-20 20:44:00,
2013-02-20 12:59:00,40.9,20.0,30.07,West,273,5.0,9.0,43,0.00,,,0.00,weatherlink.com 1.10,2013-02-20 20:59:00,
2013-02-20 13:14:00,41.1,20.0,30.06,NW,306,7.0,10.0,43,0.00,,,0.00,weatherlink.com 1.10,2013-02-20 21:14:00,
2013-02-20 13:29:00,41.4,20.0,30.05,West,266,8.0,9.0,43,0.00,,,0.00,weatherlink.com 1.10,2013-02-20 21:29:00,
2013-02-20 13:44:00,41.1,21.0,30.05,NNW,327,3.0,8.0,44,0.00,,,0.00,weatherlink.com 1.10,2013-02-20 21:44:00,
2013-02-20 13:59:00,41.0,21.0,30.04,NNW,338,9.0,9.0,45,0.00,,,0.00,weatherlink.com 1.10,2013-02-20 21:59:00,
2013-02-20 14:14:00,39.7,21.0,30.04,NNW,342,8.0,10.0,47,0.00,,,0.00,weatherlink.com 1.10,2013-02-20 22:14:00,
2013-02-20 14:29:00,40.2,21.0,30.03,North,355,6.0,9.0,46,0.00,,,0.00,weatherlink.com 1.10,2013-02-20 22:29:00,
2013-02-20 14:44:00,40.1,21.0,30.03,NNW,331,3.0,9.0,46,0.00,,,0.00,weatherlink.com 1.10,2013-02-20 22:44:00,
2013-02-20 14:59:00,40.2,22.0,30.03,NNW,333,4.0,9.0,48,0.00,,,0.00,weatherlink.com 1.10,2013-02-20 22:59:00,
2013-02-20 15:14:00,39.8,21.0,30.03,NNW,341,6.0,8.0,48,0.00,,,0.00,weatherlink.com 1.10,2013-02-20 23:14:00,
2013-02-20 15:29:00,39.4,21.0,30.04,NNW,337,5.0,10.0,47,0.00,,,0.00,weatherlink.com 1.10,2013-02-20 23:29:00,
2013-02-20 15:44:00,38.7,20.0,30.04,NNW,327,6.0,10.0,47,0.00,,,0.00,weatherlink.com 1.10,2013-02-20 23:44:00,
2013-02-20 15:59:00,38.2,20.0,30.04,WNW,303,2.0,9.0,49,0.00,,,0.00,weatherlink.com 1.10,2013-02-20 23:59:00,
2013-02-20 16:14:00,37.5,20.0,30.04,NW,325,2.0,9.0,50,0.00,,,0.00,weatherlink.com 1.10,2013-02-21 00:14:00,
2013-02-20 16:29:00,37.4,21.0,30.04,WNW,300,6.0,8.0,52,0.00,,,0.00,weatherlink.com 1.10,2013-02-21 00:29:00,
2013-02-20 16:44:00,36.6,21.0,30.05,NNW,331,2.0,5.0,54,0.00,,,0.00,weatherlink.com 1.10,2013-02-21 00:44:00,
2013-02-20 16:59:00,36.4,21.0,30.04,NNW,331,1.0,5.0,55,0.00,,,0.00,weatherlink.com 1.10,2013-02-21 00:59:00,
2013-02-20 17:14:00,35.9,21.0,30.04,NNW,331,1.0,3.0,56,0.00,,,0.00,weatherlink.com 1.10,2013-02-21 01:14:00,
2013-02-20 17:29:00,35.7,22.0,30.04,NNW,331,2.0,4.0,57,0.00,,,0.00,weatherlink.com 1.10,2013-02-21 01:29:00,
2013-02-20 17:44:00,35.6,21.0,30.04,NE,45,1.0,6.0,56,0.00,,,0.00,weatherlink.com 1.10,2013-02-21 01:44:00,
2013-02-20 17:59:00,35.3,21.0,30.05,NE,49,1.0,3.0,57,0.00,,,0.00,weatherlink.com 1.10,2013-02-21 01:59:00,
2013-02-20 18:14:00,35.0,23.0,30.05,NNW,344,6.0,9.0,62,0.00,,,0.00,weatherlink.com 1.10,2013-02-21 02:14:00,
2013-02-20 18:29:00,34.1,23.0,30.06,NNW,342,7.0,8.0,65,0.00,,,0.00,weatherlink.com 1.10,2013-02-21 02:29:00,
2013-02-20 18:44:00,33.5,24.0,30.07,North,5,3.0,5.0,68,0.00,,,0.00,weatherlink.com 1.10,2013-02-21 02:44:00,
2013-02-20 18:59:00,33.0,24.0,30.07,North,5,1.0,3.0,70,0.00,,,0.00,weatherlink.com 1.10,2013-02-21 02:59:00,
2013-02-20 19:14:00,33.0,25.0,30.07,North,5,0.0,2.0,71,0.00,,,0.00,weatherlink.com 1.10,2013-02-21 03:14:00,
2013-02-20 19:29:00,32.7,24.0,30.07,North,5,0.0,1.0,71,0.00,,,0.00,weatherlink.com 1.10,2013-02-21 03:29:00,
2013-02-20 19:44:00,32.4,24.0,30.08,North,5,1.0,2.0,72,0.00,,,0.00,weatherlink.com 1.10,2013-02-21 03:44:00,
2013-02-20 19:59:00,32.3,24.0,30.08,North,5,1.0,3.0,72,0.00,,,0.00,weatherlink.com 1.10,2013-02-21 03:59:00,
2013-02-20 20:14:00,32.3,24.0,30.08,North,5,2.0,4.0,72,0.00,,,0.00,weatherlink.com 1.10,2013-02-21 04:14:00,
2013-02-20 20:29:00,32.1,24.0,30.08,North,5,1.0,3.0,72,0.00,,,0.00,weatherlink.com 1.10,2013-02-21 04:29:00,
2013-02-20 20:45:00,31.7,24.0,30.09,NNE,25,1.0,5.0,73,0.00,,,0.00,weatherlink.com 1.10,2013-02-21 04:45:00,
2013-02-20 21:00:00,31.4,24.0,30.09,NNE,25,1.0,4.0,74,0.00,,,0.00,weatherlink.com 1.10,2013-02-21 05:00:00,
2013-02-20 21:15:00,31.0,24.0,30.09,NNE,25,1.0,3.0,75,0.00,,,0.00,weatherlink.com 1.10,2013-02-21 05:15:00,
2013-02-20 21:30:00,30.7,24.0,30.09,NNE,25,0.0,3.0,77,0.00,,,0.00,weatherlink.com 1.10,2013-02-21 05:30:00,
2013-02-20 21:45:00,30.1,24.0,30.10,NNE,25,1.0,2.0,78,0.00,,,0.00,weatherlink.com 1.10,2013-02-21 05:45:00,
2013-02-20 22:00:00,29.6,24.0,30.10,NNE,25,1.0,3.0,80,0.00,,,0.00,weatherlink.com 1.10,2013-02-21 06:00:00,
2013-02-20 22:15:00,28.9,24.0,30.10,NNE,25,2.0,2.0,81,0.00,,,0.00,weatherlink.com 1.10,2013-02-21 06:15:00,
2013-02-20 22:30:00,28.3,24.0,30.11,NNE,25,2.0,3.0,83,0.00,,,0.00,weatherlink.com 1.10,2013-02-21 06:30:00,
2013-02-20 23:00:00,28.1,23.0,30.11,NNE,25,2.0,3.0,82,0.00,,,0.00,weatherlink.com 1.10,2013-02-21 07:00:00,
2013-02-20 23:15:00,28.3,24.0,30.11,NNE,25,1.0,4.0,82,0.00,,,0.00,weatherlink.com 1.10,2013-02-21 07:15:00,
2013-02-20 23:30:00,28.3,24.0,30.10,NNE,26,1.0,4.0,82,0.00,,,0.00,weatherlink.com 1.10,2013-02-21 07:30:00,
2013-02-20 23:45:00,27.9,23.0,30.11,NNE,26,2.0,4.0,83,0.00,,,0.00,weatherlink.com 1.10,2013-02-21 07:45:00,